createdAt,value
2018-11-04T00:01:54.155Z,10.72
2018-11-04T00:04:22.393Z,10.50
2018-11-04T00:06:50.594Z,10.38
2018-11-04T00:09:18.757Z,10.60
2018-11-04T00:11:47.031Z,11.05
2018-11-04T00:14:15.279Z,10.88
2018-11-04T00:16:43.577Z,11.20
2018-11-04T00:19:12.167Z,10.98
2018-11-04T00:21:40.396Z,10.78
2018-11-04T00:24:08.735Z,11.50
2018-11-04T00:26:36.815Z,10.75
2018-11-04T00:29:05.504Z,11.35
2018-11-04T00:31:33.740Z,10.18
2018-11-04T00:34:01.919Z,10.78
2018-11-04T00:36:30.140Z,11.50
2018-11-04T00:38:58.427Z,9.43
2018-11-04T00:41:26.672Z,11.50
2018-11-04T00:43:54.946Z,10.30
2018-11-04T00:46:23.270Z,11.93
2018-11-04T00:48:51.512Z,11.85
2018-11-04T00:51:19.882Z,11.90
2018-11-04T00:53:48.126Z,11.18
2018-11-04T00:56:16.314Z,12.65
2018-11-04T00:58:44.536Z,11.80
2018-11-04T01:01:12.786Z,13.10
2018-11-04T01:03:40.974Z,12.50
2018-11-04T01:06:09.159Z,12.00
2018-11-04T01:08:37.419Z,12.18
2018-11-04T01:11:05.617Z,12.55
2018-11-04T01:13:33.911Z,11.70
2018-11-04T01:16:02.066Z,11.08
2018-11-04T01:18:30.256Z,12.25
2018-11-04T01:20:58.505Z,11.85
2018-11-04T01:23:26.701Z,12.50
2018-11-04T01:25:54.925Z,12.35
2018-11-04T01:28:23.129Z,12.65
2018-11-04T01:30:51.368Z,12.28
2018-11-04T01:33:19.649Z,13.20
2018-11-04T01:35:47.882Z,12.73
2018-11-04T01:38:16.089Z,11.63
2018-11-04T01:40:44.384Z,13.55
2018-11-04T01:43:12.642Z,13.03
2018-11-04T01:45:40.872Z,13.25
2018-11-04T01:48:09.074Z,13.55
2018-11-04T01:50:37.231Z,12.13
2018-11-04T01:53:05.716Z,14.20
2018-11-04T01:55:33.873Z,12.82
2018-11-04T01:58:02.084Z,12.63
2018-11-04T02:00:30.266Z,13.53
2018-11-04T02:02:58.451Z,13.78
2018-11-04T02:05:26.596Z,13.75
2018-11-04T02:07:54.768Z,12.68
2018-11-04T02:10:22.933Z,13.40
2018-11-04T02:12:51.088Z,13.70
2018-11-04T02:15:19.244Z,13.70
2018-11-04T02:17:47.400Z,14.15
2018-11-04T02:20:16.078Z,14.90
2018-11-04T02:22:44.267Z,13.48
2018-11-04T02:25:13.568Z,13.80
2018-11-04T02:27:42.459Z,12.15
2018-11-04T02:30:13.194Z,13.28
2018-11-04T02:32:42.047Z,13.55
2018-11-04T02:35:10.229Z,13.10
2018-11-04T02:37:38.590Z,12.65
2018-11-04T02:40:06.766Z,12.85
2018-11-04T02:42:34.916Z,13.58
2018-11-04T02:45:03.075Z,13.70
2018-11-04T02:47:31.225Z,11.93
2018-11-04T02:49:59.403Z,12.13
2018-11-04T02:52:27.573Z,13.43
2018-11-04T02:54:55.737Z,13.65
2018-11-04T02:57:23.920Z,13.30
2018-11-04T02:59:52.089Z,11.55
2018-11-04T03:02:20.258Z,12.45
2018-11-04T03:04:48.408Z,13.32
2018-11-04T03:07:16.605Z,13.25
2018-11-04T03:09:44.801Z,14.25
2018-11-04T03:12:13.025Z,13.25
2018-11-04T03:14:41.228Z,13.40
2018-11-04T03:17:09.354Z,13.83
2018-11-04T03:19:37.499Z,12.28
2018-11-04T03:22:06.199Z,12.90
2018-11-04T03:24:34.461Z,14.10
2018-11-04T03:27:02.587Z,12.60
2018-11-04T03:29:30.754Z,13.13
2018-11-04T03:31:58.958Z,13.08
2018-11-04T03:34:27.149Z,12.15
2018-11-04T03:36:55.369Z,13.65
2018-11-04T03:39:23.572Z,12.50
2018-11-04T03:41:51.756Z,13.95
2018-11-04T03:44:19.916Z,13.75
2018-11-04T03:46:48.099Z,13.60
2018-11-04T03:49:16.280Z,14.15
2018-11-04T03:51:44.500Z,12.73
2018-11-04T03:54:12.668Z,11.63
2018-11-04T03:56:40.877Z,13.03
2018-11-04T03:59:09.047Z,12.93
2018-11-04T04:01:37.226Z,12.73
2018-11-04T04:04:05.449Z,12.37
2018-11-04T04:06:33.624Z,12.58
2018-11-04T04:09:01.901Z,12.10
2018-11-04T04:11:30.074Z,11.93
2018-11-04T04:13:58.230Z,12.95
2018-11-04T04:16:26.389Z,12.58
2018-11-04T04:18:54.546Z,12.10
2018-11-04T04:21:22.715Z,13.53
2018-11-04T04:23:50.884Z,13.22
2018-11-04T04:26:19.050Z,13.85
2018-11-04T04:28:47.193Z,12.75
2018-11-04T04:31:15.346Z,12.70
2018-11-04T04:33:43.577Z,12.75
2018-11-04T04:36:11.729Z,13.10
2018-11-04T04:38:39.880Z,13.08
2018-11-04T04:41:08.038Z,12.93
2018-11-04T04:43:36.194Z,13.95
2018-11-04T04:46:04.501Z,12.40
2018-11-04T04:48:32.657Z,13.70
2018-11-04T04:51:00.838Z,14.47
2018-11-04T04:53:28.988Z,12.85
2018-11-04T04:55:57.716Z,14.60
2018-11-04T04:58:25.848Z,14.05
2018-11-04T05:00:54.585Z,12.60
2018-11-04T05:03:23.073Z,13.70
2018-11-04T05:05:51.260Z,13.15
2018-11-04T05:08:19.443Z,14.28
2018-11-04T05:10:47.635Z,14.43
2018-11-04T05:13:15.940Z,12.93
2018-11-04T05:15:44.183Z,13.70
2018-11-04T05:18:12.343Z,12.60
2018-11-04T05:20:40.512Z,13.53
2018-11-04T05:23:08.729Z,12.43
2018-11-04T05:25:36.881Z,12.45
2018-11-04T05:28:05.305Z,11.80
2018-11-04T05:30:33.465Z,14.03
2018-11-04T05:33:01.687Z,13.70
2018-11-04T05:35:29.832Z,12.58
2018-11-04T05:37:58.009Z,13.05
2018-11-04T05:40:26.717Z,12.93
2018-11-04T05:42:54.946Z,11.45
2018-11-04T05:45:23.073Z,13.48
2018-11-04T05:47:51.227Z,12.65
2018-11-04T05:50:19.396Z,12.65
2018-11-04T05:52:47.600Z,14.13
2018-11-04T05:55:15.792Z,13.35
2018-11-04T05:57:44.774Z,14.03
2018-11-04T06:00:12.909Z,13.88
2018-11-04T06:02:41.244Z,13.10
2018-11-04T06:05:10.542Z,15.25
2018-11-04T06:07:38.752Z,14.23
2018-11-04T06:10:07.059Z,14.55
2018-11-04T06:12:35.616Z,14.68
2018-11-04T06:15:03.803Z,13.98
2018-11-04T06:17:31.972Z,14.00
2018-11-04T06:20:00.253Z,13.45
2018-11-04T06:22:28.393Z,13.05
2018-11-04T06:24:56.549Z,12.70
2018-11-04T06:27:24.696Z,13.28
2018-11-04T06:29:52.921Z,14.58
2018-11-04T06:32:21.084Z,14.45
2018-11-04T06:34:49.277Z,13.98
2018-11-04T06:37:17.479Z,14.25
2018-11-04T06:39:45.625Z,15.68
2018-11-04T06:42:13.782Z,16.10
2018-11-04T06:44:41.972Z,15.65
2018-11-04T06:47:10.256Z,16.32
2018-11-04T06:49:38.319Z,17.67
2018-11-04T06:52:06.573Z,16.97
2018-11-04T06:54:34.762Z,16.52
2018-11-04T06:57:05.070Z,16.87
2018-11-04T06:59:33.253Z,16.80
2018-11-04T07:02:01.389Z,17.07
2018-11-04T07:04:30.101Z,16.75
2018-11-04T07:06:58.537Z,17.87
2018-11-04T07:09:26.736Z,15.45
2018-11-04T07:11:54.897Z,16.30
2018-11-04T07:14:24.174Z,14.95
2018-11-04T07:16:52.336Z,14.20
2018-11-04T07:19:20.490Z,14.25
2018-11-04T07:21:48.673Z,14.58
2018-11-04T07:24:16.856Z,15.55
2018-11-04T07:26:45.022Z,14.43
2018-11-04T07:29:13.203Z,14.90
2018-11-04T07:31:41.352Z,15.35
2018-11-04T07:34:09.520Z,14.03
2018-11-04T07:36:37.720Z,13.68
2018-11-04T07:39:08.569Z,15.90
2018-11-04T07:41:36.802Z,16.50
2018-11-04T07:44:05.100Z,14.33
2018-11-04T07:46:33.317Z,15.80
2018-11-04T07:49:01.465Z,14.63
2018-11-04T07:51:29.707Z,14.58
2018-11-04T07:53:57.869Z,16.90
2018-11-04T07:56:26.045Z,14.00
2018-11-04T07:58:54.238Z,17.15
2018-11-04T08:01:24.389Z,14.50
2018-11-04T08:03:52.622Z,15.03
2018-11-04T08:06:20.745Z,14.80
2018-11-04T08:08:48.926Z,15.05
2018-11-04T08:11:17.173Z,15.28
2018-11-04T08:13:45.453Z,15.53
2018-11-04T08:16:13.529Z,13.68
2018-11-04T08:18:41.765Z,14.30
2018-11-04T08:21:09.957Z,14.30
2018-11-04T08:23:38.102Z,15.00
2018-11-04T08:26:06.269Z,16.35
2018-11-04T08:28:34.445Z,14.33
2018-11-04T08:31:02.620Z,13.68
2018-11-04T08:33:30.808Z,15.03
2018-11-04T08:35:59.013Z,14.95
2018-11-04T08:38:27.190Z,15.35
2018-11-04T08:40:55.424Z,14.35
2018-11-04T08:43:23.645Z,12.40
2018-11-04T08:45:51.937Z,14.43
2018-11-04T08:48:20.087Z,15.03
2018-11-04T08:50:48.305Z,14.23
2018-11-04T08:53:16.509Z,15.30
2018-11-04T08:55:44.710Z,15.28
2018-11-04T08:58:13.058Z,19.65
2018-11-04T09:00:41.301Z,18.50
2018-11-04T09:03:09.494Z,17.52
2018-11-04T09:05:37.669Z,18.52
2018-11-04T09:08:05.821Z,19.15
2018-11-04T09:10:33.995Z,20.10
2018-11-04T09:13:02.173Z,17.20
2018-11-04T09:15:30.447Z,17.40
2018-11-04T09:17:58.634Z,15.45
2018-11-04T09:20:26.787Z,16.42
2018-11-04T09:22:54.969Z,16.97
2018-11-04T09:25:23.148Z,16.70
2018-11-04T09:27:51.294Z,16.75
2018-11-04T09:30:19.501Z,17.95
2018-11-04T09:32:47.671Z,19.20
2018-11-04T09:35:15.985Z,17.92
2018-11-04T09:37:44.121Z,18.12
2018-11-04T09:40:13.200Z,18.40
2018-11-04T09:42:41.392Z,18.25
2018-11-04T09:45:10.491Z,20.02
2018-11-04T09:47:38.764Z,17.80
2018-11-04T09:50:08.502Z,17.12
2018-11-04T09:52:36.634Z,19.77
2018-11-04T09:55:05.605Z,20.57
2018-11-04T09:57:33.768Z,20.50
2018-11-04T10:00:01.926Z,19.65
2018-11-04T10:02:30.074Z,18.40
2018-11-04T10:04:58.325Z,17.07
2018-11-04T10:07:26.475Z,18.62
2018-11-04T10:09:54.646Z,18.80
2018-11-04T10:12:22.807Z,18.90
2018-11-04T10:14:51.009Z,16.55
2018-11-04T10:17:19.194Z,16.65
2018-11-04T10:19:47.774Z,18.30
2018-11-04T10:22:15.673Z,17.37
2018-11-04T10:24:43.937Z,17.17
2018-11-04T10:27:12.104Z,18.67
2018-11-04T10:29:40.260Z,18.20
2018-11-04T10:32:08.428Z,18.25
2018-11-04T10:34:36.617Z,19.73
2018-11-04T10:37:07.348Z,17.60
2018-11-04T10:39:35.503Z,20.65
2018-11-04T10:42:04.153Z,19.27
2018-11-04T10:44:32.367Z,19.95
2018-11-04T10:47:00.654Z,19.62
2018-11-04T10:49:29.022Z,19.77
2018-11-04T10:51:57.108Z,18.92
2018-11-04T10:54:25.357Z,20.65
2018-11-04T10:56:53.537Z,19.95
2018-11-04T10:59:21.812Z,19.42
2018-11-04T11:01:54.103Z,20.97
2018-11-04T11:04:22.518Z,21.02
2018-11-04T11:06:50.735Z,22.32
2018-11-04T11:09:18.943Z,22.43
2018-11-04T11:11:47.117Z,25.87
2018-11-04T11:14:15.327Z,23.52
2018-11-04T11:16:43.512Z,25.30
2018-11-04T11:19:11.685Z,25.25
2018-11-04T11:21:43.712Z,23.00
2018-11-04T11:24:11.877Z,25.75
2018-11-04T11:26:40.064Z,26.48
2018-11-04T11:29:08.376Z,24.40
2018-11-04T11:31:36.542Z,23.87
2018-11-04T11:34:04.880Z,24.60
2018-11-04T11:36:33.179Z,24.67
2018-11-04T11:39:01.349Z,24.27
2018-11-04T11:41:29.549Z,26.05
2018-11-04T11:43:57.688Z,24.17
2018-11-04T11:46:26.286Z,25.17
2018-11-04T11:48:54.511Z,25.32
2018-11-04T11:51:22.731Z,24.80
2018-11-04T11:53:50.893Z,24.53
2018-11-04T11:56:19.126Z,26.40
2018-11-04T11:58:47.332Z,25.95
2018-11-04T12:01:15.592Z,26.20
2018-11-04T12:03:43.796Z,26.93
2018-11-04T12:06:12.308Z,26.20
2018-11-04T12:08:40.478Z,24.02
2018-11-04T12:11:08.661Z,25.30
2018-11-04T12:13:36.897Z,25.88
2018-11-04T12:16:05.588Z,24.65
2018-11-04T12:18:33.734Z,24.57
2018-11-04T12:21:01.918Z,23.65
2018-11-04T12:23:30.491Z,25.43
2018-11-04T12:25:58.925Z,24.30
2018-11-04T12:28:27.108Z,23.20
2018-11-04T12:30:55.264Z,23.57
2018-11-04T12:33:23.510Z,24.53
2018-11-04T12:35:51.725Z,23.95
2018-11-04T12:38:19.948Z,24.67
2018-11-04T12:40:48.128Z,22.85
2018-11-04T12:43:16.385Z,23.10
2018-11-04T12:45:44.987Z,23.70
2018-11-04T12:48:13.132Z,24.02
2018-11-04T12:50:41.370Z,22.45
2018-11-04T12:53:09.537Z,20.50
2018-11-04T12:55:37.732Z,21.00
2018-11-04T12:58:05.917Z,20.20
2018-11-04T13:00:34.304Z,25.00
2018-11-04T13:03:02.490Z,21.10
2018-11-04T13:05:30.682Z,21.47
2018-11-04T13:07:58.838Z,21.33
2018-11-04T13:10:28.166Z,19.27
2018-11-04T13:12:56.369Z,21.00
2018-11-04T13:15:24.560Z,20.40
2018-11-04T13:17:52.858Z,20.07
2018-11-04T13:20:21.032Z,19.87
2018-11-04T13:22:49.201Z,18.20
2018-11-04T13:25:17.457Z,20.30
2018-11-04T13:27:45.657Z,20.10
2018-11-04T13:30:14.419Z,20.20
2018-11-04T13:32:42.698Z,20.40
2018-11-04T13:35:10.923Z,20.33
2018-11-04T13:37:39.181Z,17.67
2018-11-04T13:40:08.714Z,20.10
2018-11-04T13:42:37.013Z,20.40
2018-11-04T13:45:05.710Z,18.67
2018-11-04T13:47:33.925Z,19.27
2018-11-04T13:50:02.386Z,18.80
2018-11-04T13:52:30.606Z,19.27
2018-11-04T13:54:58.862Z,18.17
2018-11-04T13:57:27.304Z,18.37
2018-11-04T13:59:55.573Z,19.27
2018-11-04T14:02:23.807Z,19.60
2018-11-04T14:04:52.281Z,16.80
2018-11-04T14:07:20.535Z,17.63
2018-11-04T14:09:48.752Z,17.70
2018-11-04T14:12:16.966Z,17.70
2018-11-04T14:14:45.136Z,19.02
2018-11-04T14:17:13.545Z,18.92
2018-11-04T14:19:41.758Z,19.40
2018-11-04T14:22:10.016Z,15.03
2018-11-04T14:24:38.182Z,16.50
2018-11-04T14:27:06.429Z,17.27
2018-11-04T14:29:34.647Z,16.17
2018-11-04T14:32:02.905Z,15.58
2018-11-04T14:34:32.106Z,15.48
2018-11-04T14:37:00.340Z,16.93
2018-11-04T14:39:28.572Z,15.03
2018-11-04T14:41:56.855Z,15.32
2018-11-04T14:44:25.563Z,15.43
2018-11-04T14:46:53.880Z,14.98
2018-11-04T14:49:22.177Z,15.70
2018-11-04T14:51:50.414Z,16.40
2018-11-04T14:54:18.782Z,18.77
2018-11-04T14:56:47.657Z,15.98
2018-11-04T14:59:15.913Z,15.50
2018-11-04T15:01:44.232Z,19.30
2018-11-04T15:04:12.410Z,16.40
2018-11-04T15:06:40.671Z,16.05
2018-11-04T15:09:08.945Z,22.93
2018-11-04T15:11:37.141Z,16.70
2018-11-04T15:14:05.505Z,16.12
2018-11-04T15:16:33.729Z,17.32
2018-11-04T15:19:02.050Z,16.05
2018-11-04T15:21:30.193Z,17.80
2018-11-04T15:23:58.406Z,16.50
2018-11-04T15:26:26.637Z,18.60
2018-11-04T15:28:54.915Z,18.48
2018-11-04T15:31:23.161Z,16.87
2018-11-04T15:33:51.450Z,17.32
2018-11-04T15:36:19.662Z,16.77
2018-11-04T15:38:47.874Z,18.25
2018-11-04T15:41:16.105Z,15.55
2018-11-04T15:43:44.368Z,15.90
2018-11-04T15:46:12.622Z,17.57
2018-11-04T15:48:40.884Z,15.70
2018-11-04T15:51:09.105Z,15.18
2018-11-04T15:53:37.373Z,16.35
2018-11-04T15:56:05.757Z,15.15
2018-11-04T15:58:34.293Z,16.12
2018-11-04T16:01:02.528Z,16.57
2018-11-04T16:03:30.739Z,14.90
2018-11-04T16:05:59.082Z,15.58
2018-11-04T16:08:27.177Z,14.87
2018-11-04T16:10:55.342Z,16.10
2018-11-04T16:13:23.497Z,15.43
2018-11-04T16:15:51.748Z,16.42
2018-11-04T16:18:20.122Z,14.45
2018-11-04T16:20:48.165Z,15.23
2018-11-04T16:23:16.322Z,15.88
2018-11-04T16:25:44.528Z,16.50
2018-11-04T16:28:12.697Z,17.23
2018-11-04T16:30:40.876Z,16.42
2018-11-04T16:33:09.387Z,14.63
2018-11-04T16:35:37.521Z,17.42
2018-11-04T16:38:05.743Z,17.05
2018-11-04T16:40:33.987Z,17.55
2018-11-04T16:43:02.188Z,15.83
2018-11-04T16:45:30.393Z,14.50
2018-11-04T16:47:58.618Z,14.10
2018-11-04T16:50:26.863Z,15.80
2018-11-04T16:52:55.148Z,14.63
2018-11-04T16:55:23.368Z,15.40
2018-11-04T16:57:51.599Z,14.68
2018-11-04T17:00:19.818Z,14.78
2018-11-04T17:03:14.882Z,14.15
2018-11-04T17:05:43.357Z,15.40
2018-11-04T17:08:11.401Z,14.45
2018-11-04T17:10:39.638Z,13.48
2018-11-04T17:13:07.904Z,13.22
2018-11-04T17:15:36.150Z,14.10
2018-11-04T17:18:04.686Z,13.65
2018-11-04T17:20:32.913Z,14.83
2018-11-04T17:23:01.321Z,15.45
2018-11-04T17:25:29.560Z,13.48
2018-11-04T17:27:57.803Z,13.10
2018-11-04T17:30:26.029Z,14.30
2018-11-04T17:32:54.288Z,13.20
2018-11-04T17:35:22.566Z,14.15
2018-11-04T17:37:50.773Z,14.30
2018-11-04T17:40:19.018Z,12.75
2018-11-04T17:42:47.173Z,13.60
2018-11-04T17:45:16.502Z,14.03
2018-11-04T17:47:45.195Z,53.23
2018-11-04T17:50:14.885Z,35.50
2018-11-04T17:52:43.577Z,12.20
2018-11-04T17:55:11.742Z,15.03
2018-11-04T17:57:39.924Z,13.30
2018-11-04T18:00:09.366Z,13.28
2018-11-04T18:02:37.506Z,13.20
2018-11-04T18:05:06.398Z,13.83
2018-11-04T18:07:34.540Z,12.73
2018-11-04T18:10:02.741Z,12.35
2018-11-04T18:12:30.937Z,11.50
2018-11-04T18:14:59.180Z,11.90
2018-11-04T18:17:27.433Z,12.25
2018-11-04T18:19:55.657Z,14.25
2018-11-04T18:22:23.816Z,19.82
2018-11-04T18:24:52.046Z,13.08
2018-11-04T18:27:20.259Z,27.10
2018-11-04T18:29:48.501Z,21.23
2018-11-04T18:32:16.769Z,13.18
2018-11-04T18:34:44.874Z,12.78
2018-11-04T18:37:13.041Z,11.55
2018-11-04T18:39:41.241Z,12.13
2018-11-04T18:42:10.444Z,11.80
2018-11-04T18:44:38.782Z,12.45
2018-11-04T18:47:06.953Z,12.50
2018-11-04T18:49:35.269Z,14.25
2018-11-04T18:52:03.551Z,11.10
2018-11-04T18:54:31.845Z,19.82
2018-11-04T18:57:00.045Z,12.80
2018-11-04T18:59:28.247Z,11.90
2018-11-04T19:01:56.399Z,10.80
2018-11-04T19:04:24.653Z,12.13
2018-11-04T19:06:52.856Z,11.68
2018-11-04T19:09:21.074Z,10.88
2018-11-04T19:11:49.371Z,13.68
2018-11-04T19:14:17.671Z,15.00
2018-11-04T19:16:46.015Z,13.05
2018-11-04T19:19:14.251Z,12.07
2018-11-04T19:21:42.531Z,10.35
2018-11-04T19:24:10.748Z,12.35
2018-11-04T19:26:38.946Z,12.03
2018-11-04T19:29:07.169Z,11.53
2018-11-04T19:31:35.353Z,11.78
2018-11-04T19:34:03.608Z,11.45
2018-11-04T19:36:31.809Z,11.95
2018-11-04T19:38:59.990Z,10.90
2018-11-04T19:41:28.208Z,11.95
2018-11-04T19:43:56.410Z,10.88
2018-11-04T19:46:30.121Z,12.15
2018-11-04T19:48:59.225Z,9.70
2018-11-04T19:51:27.390Z,9.90
2018-11-04T19:53:55.582Z,11.43
2018-11-04T19:56:23.843Z,10.55
2018-11-04T19:58:52.148Z,11.10
2018-11-04T20:01:20.364Z,11.38
2018-11-04T20:03:48.691Z,9.30
2018-11-04T20:06:16.873Z,9.50
2018-11-04T20:08:50.503Z,10.78
2018-11-04T20:11:19.158Z,9.60
2018-11-04T20:13:52.848Z,10.45
2018-11-04T20:16:21.258Z,11.30
2018-11-04T20:18:54.882Z,10.10
2018-11-04T20:21:23.234Z,9.83
2018-11-04T20:23:51.478Z,9.95
2018-11-04T20:26:19.752Z,9.48
2018-11-04T20:28:48.143Z,8.85
2018-11-04T20:31:21.831Z,10.50
2018-11-04T20:33:50.479Z,10.35
2018-11-04T20:36:18.717Z,9.65
2018-11-04T20:38:52.376Z,10.25
2018-11-04T20:41:30.705Z,9.35
2018-11-04T20:43:59.298Z,9.13
2018-11-04T20:46:27.678Z,10.38
2018-11-04T20:49:01.262Z,10.03
2018-11-04T20:51:29.494Z,9.65
2018-11-04T20:53:57.861Z,11.03
2018-11-04T20:56:31.391Z,10.45
2018-11-04T20:58:59.702Z,11.08
2018-11-04T21:01:28.044Z,10.32
2018-11-04T21:03:56.814Z,9.88
2018-11-04T21:06:24.921Z,12.18
2018-11-04T21:08:53.164Z,10.60
2018-11-04T21:11:21.503Z,11.60
2018-11-04T21:13:49.752Z,10.93
2018-11-04T21:16:17.975Z,10.25
2018-11-04T21:18:46.194Z,10.85
2018-11-04T21:21:14.476Z,9.75
2018-11-04T21:23:42.701Z,15.45
2018-11-04T21:26:11.059Z,16.70
2018-11-04T21:28:39.441Z,11.22
2018-11-04T21:31:07.595Z,10.75
2018-11-04T21:33:35.850Z,11.85
2018-11-04T21:36:04.152Z,14.50
2018-11-04T21:38:32.316Z,9.93
2018-11-04T21:41:00.539Z,11.85
2018-11-04T21:43:29.292Z,13.30
2018-11-04T21:45:57.268Z,12.75
2018-11-04T21:48:25.486Z,11.00
2018-11-04T21:50:53.776Z,11.53
2018-11-04T21:53:21.935Z,11.40
2018-11-04T21:55:50.275Z,11.25
2018-11-04T21:58:18.345Z,11.28
2018-11-04T22:00:46.531Z,11.30
2018-11-04T22:03:14.848Z,11.15
2018-11-04T22:05:42.914Z,11.35
2018-11-04T22:08:11.086Z,12.20
2018-11-04T22:10:39.382Z,12.93
2018-11-04T22:13:07.569Z,11.22
2018-11-04T22:15:36.187Z,11.00
2018-11-04T22:18:04.345Z,11.15
2018-11-04T22:20:32.501Z,11.93
2018-11-04T22:23:00.665Z,15.63
2018-11-04T22:25:29.001Z,11.85
2018-11-04T22:27:57.165Z,11.65
2018-11-04T22:30:25.613Z,9.98
2018-11-04T22:32:53.808Z,11.28
2018-11-04T22:35:21.973Z,12.85
2018-11-04T22:37:50.182Z,13.58
2018-11-04T22:40:18.366Z,10.85
2018-11-04T22:42:46.571Z,10.23
2018-11-04T22:45:15.054Z,12.13
2018-11-04T22:47:43.333Z,11.75
2018-11-04T22:50:14.472Z,13.53
2018-11-04T22:52:43.915Z,11.60
2018-11-04T22:55:12.964Z,11.73
2018-11-04T22:57:41.549Z,11.08
2018-11-04T23:00:16.294Z,10.63
2018-11-04T23:02:45.154Z,12.20
2018-11-04T23:05:18.801Z,11.53
2018-11-04T23:07:47.096Z,13.70
2018-11-04T23:10:15.615Z,12.75
2018-11-04T23:12:43.885Z,11.78
2018-11-04T23:15:12.099Z,12.05
2018-11-04T23:17:40.309Z,11.03
2018-11-04T23:20:08.622Z,13.93
2018-11-04T23:22:37.695Z,11.30
2018-11-04T23:25:07.228Z,12.33
2018-11-04T23:27:35.517Z,11.57
2018-11-04T23:30:05.037Z,12.50
2018-11-04T23:32:33.306Z,14.40
2018-11-04T23:35:01.536Z,14.00
2018-11-04T23:37:29.732Z,13.18
2018-11-04T23:39:57.939Z,12.63
2018-11-04T23:42:26.123Z,12.65
2018-11-04T23:44:54.316Z,13.03
2018-11-04T23:47:22.544Z,12.65
2018-11-04T23:49:50.755Z,13.28
2018-11-04T23:52:18.997Z,12.93
2018-11-04T23:54:47.297Z,13.03
2018-11-04T23:57:15.620Z,14.95
2018-11-04T23:59:43.814Z,13.98
